TAF Text Data
IDs:
Format:
Raw Decoded Include METAR

Data at: 1057 UTC 07 Dec 2022

KVLD 070909Z 0709/0806 00000KT 3SM BR BKN002
  TEMPO 0710/0713 1/2SM FG BKN002
  FM071400 VRB03KT 3SM BR OVC008
  FM071700 VRB03KT P6SM BKN020
  FM072000 VRB03KT P6SM FEW080